createdAt,value
2018-09-02T00:00:29.276Z,4.20
2018-09-02T00:03:04.078Z,4.67
2018-09-02T00:05:37.389Z,4.30
2018-09-02T00:08:10.749Z,4.57
2018-09-02T00:10:44.041Z,4.20
2018-09-02T00:13:17.350Z,4.20
2018-09-02T00:15:50.638Z,4.70
2018-09-02T00:18:24.024Z,4.23
2018-09-02T00:20:57.297Z,4.63
2018-09-02T00:23:30.620Z,4.00
2018-09-02T00:26:03.960Z,3.43
2018-09-02T00:28:37.265Z,4.17
2018-09-02T00:31:10.544Z,3.77
2018-09-02T00:33:43.876Z,4.60
2018-09-02T00:36:17.147Z,3.43
2018-09-02T00:38:50.453Z,3.77
2018-09-02T00:41:23.809Z,3.50
2018-09-02T00:43:57.266Z,3.33
2018-09-02T00:46:30.580Z,3.70
2018-09-02T00:49:03.919Z,3.07
2018-09-02T00:51:37.706Z,2.90
2018-09-02T00:54:11.146Z,3.13
2018-09-02T00:56:44.452Z,3.20
2018-09-02T00:59:17.780Z,3.40
2018-09-02T01:01:51.381Z,3.33
2018-09-02T01:04:24.689Z,3.63
2018-09-02T01:06:58.012Z,3.23
2018-09-02T01:09:31.328Z,3.27
2018-09-02T01:12:04.644Z,3.07
2018-09-02T01:14:39.607Z,3.80
2018-09-02T01:17:12.993Z,3.40
2018-09-02T01:19:46.377Z,3.37
2018-09-02T01:22:19.899Z,4.93
2018-09-02T01:24:53.441Z,8.27
2018-09-02T01:27:27.168Z,11.07
2018-09-02T01:30:00.550Z,10.40
2018-09-02T01:32:33.895Z,7.90
2018-09-02T01:35:07.366Z,9.03
2018-09-02T01:37:40.653Z,8.60
2018-09-02T01:40:14.070Z,7.80
2018-09-02T01:42:47.417Z,7.30
2018-09-02T01:45:20.734Z,7.43
2018-09-02T01:47:54.015Z,6.90
2018-09-02T01:50:27.322Z,5.80
2018-09-02T01:53:00.621Z,4.83
2018-09-02T01:55:33.922Z,5.10
2018-09-02T01:58:07.209Z,5.77
2018-09-02T02:00:40.517Z,5.20
2018-09-02T02:03:13.842Z,4.63
2018-09-02T02:05:47.193Z,3.83
2018-09-02T02:08:20.479Z,4.00
2018-09-02T02:10:53.774Z,3.87
2018-09-02T02:13:27.109Z,4.17
2018-09-02T02:16:00.420Z,3.80
2018-09-02T02:18:33.721Z,4.00
2018-09-02T02:21:07.057Z,4.07
2018-09-02T02:23:40.354Z,3.73
2018-09-02T02:26:13.700Z,3.90
2018-09-02T02:28:46.981Z,3.93
2018-09-02T02:31:20.321Z,4.77
2018-09-02T02:33:53.694Z,4.40
2018-09-02T02:36:26.986Z,5.20
2018-09-02T02:39:00.298Z,4.60
2018-09-02T02:41:33.645Z,5.00
2018-09-02T02:44:07.097Z,3.73
2018-09-02T02:46:40.415Z,4.23
2018-09-02T02:49:14.327Z,4.83
2018-09-02T02:51:47.724Z,3.50
2018-09-02T02:54:21.029Z,4.30
2018-09-02T02:56:54.342Z,3.97
2018-09-02T02:59:27.647Z,3.70
2018-09-02T03:02:01.294Z,3.77
2018-09-02T03:04:34.580Z,3.97
2018-09-02T03:07:07.913Z,3.43
2018-09-02T03:09:41.201Z,3.50
2018-09-02T03:12:14.584Z,3.60
2018-09-02T03:14:47.888Z,3.27
2018-09-02T03:17:21.183Z,3.90
2018-09-02T03:19:54.477Z,3.90
2018-09-02T03:22:27.772Z,3.60
2018-09-02T03:25:01.086Z,5.17
2018-09-02T03:27:34.425Z,3.63
2018-09-02T03:30:07.716Z,3.67
2018-09-02T03:32:41.026Z,4.17
2018-09-02T03:35:14.306Z,4.10
2018-09-02T03:37:47.734Z,3.97
2018-09-02T03:40:21.026Z,5.00
2018-09-02T03:42:54.373Z,4.80
2018-09-02T03:45:27.684Z,4.77
2018-09-02T03:48:02.209Z,4.63
2018-09-02T03:50:35.533Z,3.90
2018-09-02T03:53:08.894Z,3.07
2018-09-02T03:55:42.191Z,2.97
2018-09-02T03:58:15.513Z,2.43
2018-09-02T04:00:48.797Z,3.10
2018-09-02T04:03:22.889Z,3.27
2018-09-02T04:05:56.453Z,3.33
2018-09-02T04:08:29.774Z,3.70
2018-09-02T04:11:03.126Z,3.60
2018-09-02T04:13:36.505Z,3.37
2018-09-02T04:16:09.805Z,3.50
2018-09-02T04:18:43.115Z,3.73
2018-09-02T04:21:16.424Z,3.33
2018-09-02T04:23:49.761Z,3.60
2018-09-02T04:26:23.058Z,3.93
2018-09-02T04:28:56.370Z,4.00
2018-09-02T04:31:29.682Z,3.57
2018-09-02T04:34:03.011Z,3.23
2018-09-02T04:36:36.330Z,2.90
2018-09-02T04:39:10.118Z,3.53
2018-09-02T04:41:43.466Z,3.37
2018-09-02T04:44:17.049Z,4.10
2018-09-02T04:46:50.379Z,4.00
2018-09-02T04:49:23.957Z,3.20
2018-09-02T04:51:57.263Z,3.57
2018-09-02T04:54:30.682Z,3.80
2018-09-02T04:57:03.971Z,3.07
2018-09-02T04:59:37.288Z,3.00
2018-09-02T05:02:10.589Z,3.50
2018-09-02T05:04:43.896Z,3.37
2018-09-02T05:07:17.246Z,4.03
2018-09-02T05:09:50.557Z,3.77
2018-09-02T05:12:23.877Z,3.47
2018-09-02T05:14:57.175Z,3.70
2018-09-02T05:17:32.257Z,3.70
2018-09-02T05:20:05.620Z,3.33
2018-09-02T05:22:38.958Z,3.53
2018-09-02T05:25:12.277Z,3.23
2018-09-02T05:27:45.616Z,3.40
2018-09-02T05:30:18.908Z,3.37
2018-09-02T05:32:52.233Z,3.73
2018-09-02T05:35:25.564Z,2.87
2018-09-02T05:37:58.892Z,2.70
2018-09-02T05:40:32.256Z,3.07
2018-09-02T05:43:05.593Z,3.00
2018-09-02T05:45:38.900Z,3.03
2018-09-02T05:48:12.222Z,2.57
2018-09-02T05:50:45.541Z,3.40
2018-09-02T05:53:18.851Z,3.40
2018-09-02T05:55:52.144Z,3.70
2018-09-02T05:58:25.447Z,3.13
2018-09-02T06:00:58.743Z,3.27
2018-09-02T06:03:32.093Z,3.60
2018-09-02T06:06:05.594Z,3.23
2018-09-02T06:08:39.032Z,3.17
2018-09-02T06:11:12.354Z,2.97
2018-09-02T06:13:45.665Z,3.83
2018-09-02T06:16:18.945Z,3.30
2018-09-02T06:18:52.250Z,3.10
2018-09-02T06:21:25.541Z,2.90
2018-09-02T06:23:58.873Z,2.87
2018-09-02T06:26:32.165Z,3.27
2018-09-02T06:29:05.498Z,3.80
2018-09-02T06:31:38.770Z,4.20
2018-09-02T06:34:12.073Z,5.62
2018-09-02T06:36:45.344Z,3.83
2018-09-02T06:39:18.657Z,5.87
2018-09-02T06:41:51.949Z,8.20
2018-09-02T06:44:25.266Z,8.25
2018-09-02T06:46:58.565Z,8.65
2018-09-02T06:49:31.887Z,7.92
2018-09-02T06:52:05.205Z,7.90
2018-09-02T06:54:38.554Z,8.10
2018-09-02T06:57:11.925Z,8.20
2018-09-02T06:59:45.237Z,8.80
2018-09-02T07:02:18.527Z,8.45
2018-09-02T07:04:51.858Z,8.15
2018-09-02T07:07:25.194Z,8.23
2018-09-02T07:09:58.497Z,7.75
2018-09-02T07:12:31.801Z,7.28
2018-09-02T07:15:05.189Z,7.50
2018-09-02T07:17:38.469Z,7.85
2018-09-02T07:20:11.791Z,8.65
2018-09-02T07:22:45.070Z,8.83
2018-09-02T07:25:18.730Z,8.35
2018-09-02T07:27:52.023Z,7.42
2018-09-02T07:30:25.793Z,8.20
2018-09-02T07:32:59.113Z,8.60
2018-09-02T07:35:32.459Z,7.62
2018-09-02T07:38:05.753Z,7.37
2018-09-02T07:40:39.097Z,7.03
2018-09-02T07:43:12.513Z,7.47
2018-09-02T07:45:45.790Z,7.10
2018-09-02T07:48:19.077Z,6.85
2018-09-02T07:50:52.380Z,6.70
2018-09-02T07:53:25.670Z,6.85
2018-09-02T07:55:58.993Z,5.60
2018-09-02T07:58:32.314Z,6.45
2018-09-02T08:01:05.730Z,6.35
2018-09-02T08:03:39.039Z,6.35
2018-09-02T08:06:12.988Z,5.97
2018-09-02T08:08:46.349Z,5.35
2018-09-02T08:11:19.671Z,5.03
2018-09-02T08:13:53.033Z,4.47
2018-09-02T08:16:26.343Z,4.62
2018-09-02T08:18:59.649Z,4.58
2018-09-02T08:21:33.798Z,4.58
2018-09-02T08:24:07.090Z,4.53
2018-09-02T08:26:40.508Z,4.97
2018-09-02T08:29:13.738Z,4.25
2018-09-02T08:31:47.436Z,4.42
2018-09-02T08:34:20.733Z,4.20
2018-09-02T08:36:54.049Z,3.90
2018-09-02T08:39:27.332Z,3.58
2018-09-02T08:42:00.882Z,3.72
2018-09-02T08:44:34.192Z,3.52
2018-09-02T08:47:07.474Z,3.47
2018-09-02T08:49:40.786Z,3.20
2018-09-02T08:52:14.096Z,3.45
2018-09-02T08:54:47.415Z,3.00
2018-09-02T08:57:20.725Z,3.35
2018-09-02T08:59:54.037Z,3.50
2018-09-02T09:02:27.338Z,3.02
2018-09-02T09:05:01.279Z,3.47
2018-09-02T09:07:34.723Z,3.42
2018-09-02T09:10:08.243Z,3.83
2018-09-02T09:12:41.530Z,4.20
2018-09-02T09:15:14.820Z,4.12
2018-09-02T09:17:48.125Z,4.05
2018-09-02T09:20:21.424Z,3.62
2018-09-02T09:22:54.703Z,3.55
2018-09-02T09:25:28.013Z,3.95
2018-09-02T09:28:01.288Z,3.72
2018-09-02T09:30:34.593Z,3.90
2018-09-02T09:33:08.002Z,4.00
2018-09-02T09:35:41.336Z,3.42
2018-09-02T09:38:14.606Z,3.60
2018-09-02T09:40:48.084Z,3.33
2018-09-02T09:43:21.362Z,3.40
2018-09-02T09:45:54.700Z,3.10
2018-09-02T09:48:28.016Z,3.40
2018-09-02T09:51:01.326Z,3.60
2018-09-02T09:53:34.610Z,3.45
2018-09-02T09:56:07.928Z,3.25
2018-09-02T09:58:41.241Z,2.77
2018-09-02T10:01:14.549Z,3.50
2018-09-02T10:03:47.975Z,3.00
2018-09-02T10:06:21.241Z,3.40
2018-09-02T10:08:54.550Z,3.02
2018-09-02T10:11:27.862Z,3.20
2018-09-02T10:14:01.175Z,3.20
2018-09-02T10:16:34.498Z,3.15
2018-09-02T10:19:08.076Z,3.05
2018-09-02T10:21:41.389Z,3.37
2018-09-02T10:24:14.679Z,3.17
2018-09-02T10:26:48.010Z,3.08
2018-09-02T10:29:21.308Z,3.45
2018-09-02T10:31:54.630Z,3.20
2018-09-02T10:34:27.949Z,2.75
2018-09-02T10:37:01.245Z,2.83
2018-09-02T10:39:34.523Z,3.40
2018-09-02T10:42:07.917Z,3.58
2018-09-02T10:44:41.217Z,3.20
2018-09-02T10:47:14.514Z,3.10
2018-09-02T10:49:47.977Z,3.00
2018-09-02T10:52:21.241Z,3.10
2018-09-02T10:54:54.529Z,2.72
2018-09-02T10:57:27.943Z,3.40
2018-09-02T11:00:01.249Z,3.22
2018-09-02T11:02:34.557Z,3.05
2018-09-02T11:05:08.417Z,3.40
2018-09-02T11:07:41.772Z,3.17
2018-09-02T11:10:15.085Z,2.75
2018-09-02T11:12:48.393Z,2.95
2018-09-02T11:15:21.697Z,2.92
2018-09-02T11:17:55.029Z,2.85
2018-09-02T11:20:28.317Z,2.90
2018-09-02T11:23:01.659Z,3.00
2018-09-02T11:25:35.021Z,2.90
2018-09-02T11:28:08.314Z,2.75
2018-09-02T11:30:41.613Z,2.90
2018-09-02T11:33:14.935Z,3.08
2018-09-02T11:35:48.233Z,3.10
2018-09-02T11:38:21.556Z,2.77
2018-09-02T11:40:54.832Z,3.33
2018-09-02T11:43:28.154Z,2.92
2018-09-02T11:46:01.446Z,3.25
2018-09-02T11:48:34.763Z,2.80
2018-09-02T11:51:08.031Z,2.75
2018-09-02T11:53:41.373Z,3.08
2018-09-02T11:56:14.696Z,3.02
2018-09-02T11:58:48.009Z,3.30
2018-09-02T12:01:21.283Z,3.20
2018-09-02T12:03:54.633Z,3.35
2018-09-02T12:06:27.916Z,2.90
2018-09-02T12:09:01.305Z,2.90
2018-09-02T12:11:34.620Z,3.30
2018-09-02T12:14:07.941Z,2.95
2018-09-02T12:16:41.222Z,2.90
2018-09-02T12:19:14.525Z,2.85
2018-09-02T12:21:47.838Z,3.15
2018-09-02T12:24:21.197Z,3.30
2018-09-02T12:26:54.493Z,3.17
2018-09-02T12:29:27.784Z,3.22
2018-09-02T12:32:01.160Z,2.42
2018-09-02T12:34:34.471Z,3.10
2018-09-02T12:37:07.749Z,2.90
2018-09-02T12:39:41.063Z,2.67
2018-09-02T12:42:14.386Z,3.00
2018-09-02T12:44:47.678Z,3.10
2018-09-02T12:47:20.948Z,2.77
2018-09-02T12:49:54.266Z,3.05
2018-09-02T12:52:27.642Z,3.25
2018-09-02T12:55:01.009Z,3.47
2018-09-02T12:57:34.297Z,3.22
2018-09-02T13:00:08.248Z,3.33
2018-09-02T13:02:41.536Z,3.47
2018-09-02T13:05:14.862Z,3.00
2018-09-02T13:07:48.165Z,3.50
2018-09-02T13:10:21.709Z,3.25
2018-09-02T13:12:54.994Z,3.10
2018-09-02T13:15:28.304Z,2.67
2018-09-02T13:18:02.281Z,2.98
2018-09-02T13:20:35.609Z,3.10
2018-09-02T13:23:08.895Z,2.60
2018-09-02T13:25:42.189Z,2.80
2018-09-02T13:28:15.473Z,3.00
2018-09-02T13:30:48.778Z,3.05
2018-09-02T13:33:22.069Z,3.10
2018-09-02T13:35:55.482Z,3.58
2018-09-02T13:38:28.793Z,2.70
2018-09-02T13:41:02.513Z,3.00
2018-09-02T13:43:35.810Z,3.37
2018-09-02T13:46:09.115Z,2.77
2018-09-02T13:48:42.410Z,2.90
2018-09-02T13:51:15.760Z,2.83
2018-09-02T13:53:49.041Z,2.60
2018-09-02T13:56:22.318Z,2.72
2018-09-02T13:58:55.654Z,2.55
2018-09-02T14:01:29.167Z,2.47
2018-09-02T14:04:02.518Z,2.62
2018-09-02T14:06:35.838Z,2.72
2018-09-02T14:09:09.514Z,2.67
2018-09-02T14:11:42.805Z,2.90
2018-09-02T14:14:16.104Z,2.77
2018-09-02T14:16:49.388Z,2.90
2018-09-02T14:19:22.704Z,2.87
2018-09-02T14:21:55.986Z,2.70
2018-09-02T14:24:29.338Z,2.45
2018-09-02T14:27:03.463Z,2.60
2018-09-02T14:29:36.955Z,2.33
2018-09-02T14:32:10.340Z,2.90
2018-09-02T14:34:43.672Z,2.98
2018-09-02T14:37:16.955Z,2.60
2018-09-02T14:39:50.256Z,2.67
2018-09-02T14:42:23.521Z,2.47
2018-09-02T14:44:56.829Z,2.40
2018-09-02T14:47:30.109Z,3.00
2018-09-02T14:50:03.928Z,2.80
2018-09-02T14:52:37.211Z,2.47
2018-09-02T14:55:10.588Z,2.42
2018-09-02T14:57:43.905Z,2.27
2018-09-02T15:00:17.214Z,2.58
2018-09-02T15:02:50.514Z,2.45
2018-09-02T15:05:23.837Z,2.65
2018-09-02T15:07:57.137Z,2.58
2018-09-02T15:10:30.478Z,2.50
2018-09-02T15:13:03.770Z,2.35
2018-09-02T15:15:37.089Z,2.25
2018-09-02T15:18:10.369Z,2.55
2018-09-02T15:20:43.677Z,2.10
2018-09-02T15:23:16.953Z,2.47
2018-09-02T15:25:50.254Z,2.40
2018-09-02T15:28:23.543Z,2.80
2018-09-02T15:30:56.843Z,2.25
2018-09-02T15:33:30.273Z,2.70
2018-09-02T15:36:03.698Z,2.67
2018-09-02T15:38:36.981Z,2.45
2018-09-02T15:41:10.275Z,2.30
2018-09-02T15:43:43.565Z,1.92
2018-09-02T15:46:16.973Z,2.50
2018-09-02T15:48:50.285Z,2.37
2018-09-02T15:51:23.576Z,2.90
2018-09-02T15:53:56.878Z,2.60
2018-09-02T15:56:30.317Z,2.92
2018-09-02T15:59:03.589Z,3.17
2018-09-02T16:01:36.893Z,4.83
2018-09-02T16:04:10.166Z,4.20
2018-09-02T16:06:43.549Z,4.30
2018-09-02T16:09:16.837Z,4.08
2018-09-02T16:11:50.155Z,3.25
2018-09-02T16:14:23.498Z,2.30
2018-09-02T16:16:56.802Z,2.30
2018-09-02T16:19:30.083Z,2.30
2018-09-02T16:22:03.378Z,2.40
2018-09-02T16:24:36.754Z,2.40
2018-09-02T16:27:10.067Z,2.17
2018-09-02T16:29:43.388Z,2.10
2018-09-02T16:32:17.616Z,2.42
2018-09-02T16:34:50.977Z,2.35
2018-09-02T16:37:24.325Z,2.60
2018-09-02T16:39:57.633Z,2.58
2018-09-02T16:42:31.778Z,2.45
2018-09-02T16:45:05.421Z,1.90
2018-09-02T16:47:38.773Z,2.30
2018-09-02T16:50:12.059Z,2.17
2018-09-02T16:52:45.581Z,2.20
2018-09-02T16:55:18.929Z,2.20
2018-09-02T16:57:52.230Z,1.75
2018-09-02T17:00:25.609Z,2.52
2018-09-02T17:02:59.468Z,2.33
2018-09-02T17:05:32.976Z,2.15
2018-09-02T17:08:06.310Z,2.00
2018-09-02T17:10:39.743Z,2.12
2018-09-02T17:13:13.073Z,2.27
2018-09-02T17:15:46.368Z,1.98
2018-09-02T17:18:19.945Z,2.05
2018-09-02T17:20:53.257Z,2.42
2018-09-02T17:23:26.705Z,2.25
2018-09-02T17:26:00.155Z,2.40
2018-09-02T17:28:34.534Z,2.27
2018-09-02T17:31:07.961Z,2.30
2018-09-02T17:33:41.272Z,2.17
2018-09-02T17:36:14.631Z,2.10
2018-09-02T17:38:47.973Z,1.87
2018-09-02T17:41:21.321Z,2.27
2018-09-02T17:43:54.643Z,2.22
2018-09-02T17:46:28.057Z,2.05
2018-09-02T17:49:01.413Z,2.22
2018-09-02T17:51:34.705Z,1.95
2018-09-02T17:54:08.073Z,2.20
2018-09-02T17:56:41.351Z,2.10
2018-09-02T17:59:14.662Z,2.35
2018-09-02T18:01:48.341Z,2.47
2018-09-02T18:04:20.815Z,2.00
2018-09-02T18:06:54.154Z,2.20
2018-09-02T18:09:27.468Z,2.40
2018-09-02T18:12:00.770Z,2.17
2018-09-02T18:14:34.112Z,2.02
2018-09-02T18:17:07.406Z,2.00
2018-09-02T18:19:40.716Z,2.17
2018-09-02T18:22:14.013Z,2.40
2018-09-02T18:24:47.315Z,2.52
2018-09-02T18:27:23.132Z,2.02
2018-09-02T18:29:58.380Z,2.10
2018-09-02T18:32:32.342Z,2.20
2018-09-02T18:35:05.709Z,2.55
2018-09-02T18:37:39.031Z,2.42
2018-09-02T18:40:12.339Z,2.50
2018-09-02T18:42:45.657Z,2.20
2018-09-02T18:45:18.996Z,2.75
2018-09-02T18:47:52.309Z,2.30
2018-09-02T18:50:25.583Z,2.40
2018-09-02T18:52:58.885Z,2.50
2018-09-02T18:55:32.213Z,2.45
2018-09-02T18:58:05.601Z,2.47
2018-09-02T19:00:38.884Z,2.33
2018-09-02T19:03:12.278Z,2.67
2018-09-02T19:05:45.476Z,2.62
2018-09-02T19:08:18.860Z,2.27
2018-09-02T19:10:52.142Z,2.55
2018-09-02T19:13:25.440Z,2.50
2018-09-02T19:15:58.735Z,2.42
2018-09-02T19:18:32.050Z,2.22
2018-09-02T19:21:05.743Z,2.90
2018-09-02T19:23:39.334Z,2.47
2018-09-02T19:26:12.722Z,2.60
2018-09-02T19:28:46.327Z,2.50
2018-09-02T19:31:19.610Z,2.55
2018-09-02T19:33:52.941Z,2.65
2018-09-02T19:36:26.216Z,2.30
2018-09-02T19:38:59.792Z,2.17
2018-09-02T19:41:33.126Z,2.27
2018-09-02T19:44:06.480Z,2.02
2018-09-02T19:46:40.088Z,2.22
2018-09-02T19:49:13.701Z,2.50
2018-09-02T19:51:47.170Z,2.33
2018-09-02T19:54:20.653Z,1.90
2018-09-02T19:56:54.122Z,2.50
2018-09-02T19:59:27.621Z,2.10
2018-09-02T20:02:01.119Z,2.30
2018-09-02T20:04:34.743Z,1.92
2018-09-02T20:07:08.362Z,2.10
2018-09-02T20:09:41.869Z,2.30
2018-09-02T20:12:15.402Z,2.10
2018-09-02T20:14:48.932Z,2.10
2018-09-02T20:17:22.413Z,2.30
2018-09-02T20:19:55.955Z,2.02
2018-09-02T20:22:29.440Z,2.37
2018-09-02T20:25:02.970Z,2.02
2018-09-02T20:27:36.454Z,2.17
2018-09-02T20:30:10.033Z,2.02
2018-09-02T20:32:43.531Z,2.00
2018-09-02T20:35:17.012Z,1.80
2018-09-02T20:37:50.282Z,2.10
2018-09-02T20:40:23.586Z,2.17
2018-09-02T20:42:56.906Z,1.90
2018-09-02T20:45:30.210Z,2.10
2018-09-02T20:48:03.506Z,2.10
2018-09-02T20:50:36.985Z,1.92
2018-09-02T20:53:10.269Z,1.87
2018-09-02T20:55:43.616Z,2.12
2018-09-02T20:58:16.895Z,2.02
2018-09-02T21:00:50.214Z,2.27
2018-09-02T21:03:23.529Z,1.87
2018-09-02T21:05:56.948Z,1.90
2018-09-02T21:08:30.401Z,2.00
2018-09-02T21:11:03.760Z,1.82
2018-09-02T21:13:37.086Z,1.82
2018-09-02T21:16:10.453Z,1.80
2018-09-02T21:18:43.725Z,1.90
2018-09-02T21:21:17.035Z,2.10
2018-09-02T21:23:50.333Z,2.00
2018-09-02T21:26:23.673Z,1.82
2018-09-02T21:28:56.964Z,1.92
2018-09-02T21:31:30.467Z,2.20
2018-09-02T21:34:03.821Z,2.25
2018-09-02T21:36:37.164Z,1.85
2018-09-02T21:39:10.653Z,2.00
2018-09-02T21:41:43.949Z,2.35
2018-09-02T21:44:17.241Z,1.80
2018-09-02T21:46:50.540Z,2.10
2018-09-02T21:49:23.813Z,2.00
2018-09-02T21:51:57.121Z,2.25
2018-09-02T21:54:30.688Z,2.02
2018-09-02T21:57:03.988Z,2.12
2018-09-02T21:59:37.362Z,2.10
2018-09-02T22:02:10.677Z,2.45
2018-09-02T22:04:43.980Z,2.37
2018-09-02T22:07:17.443Z,2.47
2018-09-02T22:09:50.748Z,2.40
2018-09-02T22:12:24.102Z,2.05
2018-09-02T22:14:57.421Z,2.40
2018-09-02T22:17:30.791Z,2.70
2018-09-02T22:20:04.365Z,2.55
2018-09-02T22:22:37.727Z,2.00
2018-09-02T22:25:11.148Z,2.47
2018-09-02T22:27:44.493Z,2.60
2018-09-02T22:30:17.812Z,2.22
2018-09-02T22:32:51.184Z,2.42
2018-09-02T22:35:24.527Z,3.00
2018-09-02T22:37:58.042Z,2.87
2018-09-02T22:40:31.552Z,2.35
2018-09-02T22:43:05.068Z,2.90
2018-09-02T22:45:38.631Z,2.50
2018-09-02T22:48:12.213Z,2.52
2018-09-02T22:50:45.541Z,3.20
2018-09-02T22:53:18.917Z,2.80
2018-09-02T22:55:52.446Z,2.70
2018-09-02T22:58:25.963Z,2.80
2018-09-02T23:00:59.559Z,3.15
2018-09-02T23:03:33.149Z,2.90
2018-09-02T23:06:06.452Z,2.55
2018-09-02T23:08:39.779Z,2.98
2018-09-02T23:11:13.093Z,3.12
2018-09-02T23:13:46.417Z,3.00
2018-09-02T23:16:19.713Z,2.62
2018-09-02T23:18:53.402Z,3.08
2018-09-02T23:21:26.724Z,3.10
2018-09-02T23:24:00.056Z,3.15
2018-09-02T23:26:33.438Z,3.00
2018-09-02T23:29:06.784Z,3.00
2018-09-02T23:31:40.092Z,3.00
2018-09-02T23:34:13.413Z,2.90
2018-09-02T23:36:47.614Z,3.45
2018-09-02T23:39:20.950Z,2.90
2018-09-02T23:41:54.244Z,2.80
2018-09-02T23:44:27.596Z,3.20
2018-09-02T23:47:00.889Z,3.00
2018-09-02T23:49:34.222Z,3.33
2018-09-02T23:52:07.552Z,4.20
2018-09-02T23:54:40.864Z,3.37
2018-09-02T23:57:14.190Z,3.83
2018-09-02T23:59:47.597Z,3.45
